sensor_id;sensor_type;location;lat;lon;timestamp;P1;P4;P2;P0;N10;N4;N25;N1;N05;TS
44530;SPS30;30240;47.418;0.700;2023-11-21T00:01:53;2.566797;;2.31843;;;;;;;
44530;SPS30;30240;47.418;0.700;2023-11-21T00:04:18;2.8474734;;2.6086638;;;;;;;
44530;SPS30;30240;47.418;0.700;2023-11-21T00:06:43;2.7788877;;2.5640602;;;;;;;
44530;SPS30;30240;47.418;0.700;2023-11-21T00:09:09;2.5955741;;2.423045;;;;;;;
44530;SPS30;30240;47.418;0.700;2023-11-21T00:11:33;2.5955741;;2.423045;;;;;;;
44530;SPS30;30240;47.418;0.700;2023-11-21T00:13:59;2.5702496;;2.3661222;;;;;;;
44530;SPS30;30240;47.418;0.700;2023-11-21T00:16:23;3.3965104;;3.0858746;;;;;;;
44530;SPS30;30240;47.418;0.700;2023-11-21T00:18:48;3.3584611;;3.08612;;;;;;;
44530;SPS30;30240;47.418;0.700;2023-11-21T00:21:13;3.7243066;;3.5183282;;;;;;;
44530;SPS30;30240;47.418;0.700;2023-11-21T00:23:38;3.7243066;;3.5183282;;;;;;;
44530;SPS30;30240;47.418;0.700;2023-11-21T00:26:04;3.4620733;;3.2893922;;;;;;;
44530;SPS30;30240;47.418;0.700;2023-11-21T00:28:28;3.1401825;;2.9747813;;;;;;;
44530;SPS30;30240;47.418;0.700;2023-11-21T00:30:54;3.4668183;;3.2207813;;;;;;;
44530;SPS30;30240;47.418;0.700;2023-11-21T00:33:18;4.2912555;;3.9769332;;;;;;;
44530;SPS30;30240;47.418;0.700;2023-11-21T00:35:43;3.6301634;;3.4351246;;;;;;;
44530;SPS30;30240;47.418;0.700;2023-11-21T00:38:08;3.6301634;;3.4351246;;;;;;;
44530;SPS30;30240;47.418;0.700;2023-11-21T00:40:33;3.3476372;;3.1882784;;;;;;;
44530;SPS30;30240;47.418;0.700;2023-11-21T00:42:58;3.4780202;;3.289764;;;;;;;
44530;SPS30;30240;47.418;0.700;2023-11-21T00:45:23;2.4468904;;2.3228233;;;;;;;
44530;SPS30;30240;47.418;0.700;2023-11-21T00:47:48;2.222683;;2.1254785;;;;;;;
44530;SPS30;30240;47.418;0.700;2023-11-21T00:50:13;2.222683;;2.1254785;;;;;;;
44530;SPS30;30240;47.418;0.700;2023-11-21T00:52:38;2.4395506;;2.3101547;;;;;;;
44530;SPS30;30240;47.418;0.700;2023-11-21T00:55:04;2.1594727;;2.0533583;;;;;;;
44530;SPS30;30240;47.418;0.700;2023-11-21T00:57:28;1.8145028;;1.7380201;;;;;;;
44530;SPS30;30240;47.418;0.700;2023-11-21T00:59:53;2.0350807;;1.9472988;;;;;;;
44530;SPS30;30240;47.418;0.700;2023-11-21T01:02:18;2.0350807;;1.9472988;;;;;;;
44530;SPS30;30240;47.418;0.700;2023-11-21T01:04:43;1.6873139;;1.627908;;;;;;;
44530;SPS30;30240;47.418;0.700;2023-11-21T01:07:08;1.2846428;;1.2456911;;;;;;;
44530;SPS30;30240;47.418;0.700;2023-11-21T01:09:33;1.6789073;;1.634405;;;;;;;
44530;SPS30;30240;47.418;0.700;2023-11-21T01:11:58;1.3949428;;1.3660549;;;;;;;
44530;SPS30;30240;47.418;0.700;2023-11-21T01:14:24;1.3949428;;1.3660549;;;;;;;
44530;SPS30;30240;47.418;0.700;2023-11-21T01:16:49;1.5763351;;1.5294482;;;;;;;
44530;SPS30;30240;47.418;0.700;2023-11-21T01:19:13;1.6903734;;1.6306529;;;;;;;
44530;SPS30;30240;47.418;0.700;2023-11-21T01:21:38;1.8876309;;1.8456612;;;;;;;
44530;SPS30;30240;47.418;0.700;2023-11-21T01:24:04;2.2377794;;2.1839821;;;;;;;
44530;SPS30;30240;47.418;0.700;2023-11-21T01:26:29;2.2377794;;2.1839821;;;;;;;
44530;SPS30;30240;47.418;0.700;2023-11-21T01:28:53;1.8188485;;1.765097;;;;;;;
44530;SPS30;30240;47.418;0.700;2023-11-21T01:31:18;2.0594082;;1.9782376;;;;;;;
44530;SPS30;30240;47.418;0.700;2023-11-21T01:33:43;1.8441045;;1.7709526;;;;;;;
44530;SPS30;30240;47.418;0.700;2023-11-21T01:36:09;1.8510553;;1.7803766;;;;;;;
44530;SPS30;30240;47.418;0.700;2023-11-21T01:38:33;1.8510553;;1.7803766;;;;;;;
44530;SPS30;30240;47.418;0.700;2023-11-21T01:40:58;1.8409388;;1.7817411;;;;;;;
44530;SPS30;30240;47.418;0.700;2023-11-21T01:43:23;2.3841197;;2.3293452;;;;;;;
44530;SPS30;30240;47.418;0.700;2023-11-21T01:45:48;1.8799616;;1.8458586;;;;;;;
44530;SPS30;30240;47.418;0.700;2023-11-21T01:48:13;1.5219324;;1.4840025;;;;;;;
44530;SPS30;30240;47.418;0.700;2023-11-21T01:50:38;1.5219324;;1.4840025;;;;;;;
44530;SPS30;30240;47.418;0.700;2023-11-21T01:53:03;2.2269144;;2.1487095;;;;;;;
44530;SPS30;30240;47.418;0.700;2023-11-21T01:55:28;1.9988979;;1.8962343;;;;;;;
44530;SPS30;30240;47.418;0.700;2023-11-21T01:57:53;2.1855202;;2.0539656;;;;;;;
44530;SPS30;30240;47.418;0.700;2023-11-21T02:00:19;2.286163;;2.133327;;;;;;;
44530;SPS30;30240;47.418;0.700;2023-11-21T02:02:44;2.2403755;;2.1127365;;;;;;;
44530;SPS30;30240;47.418;0.700;2023-11-21T02:05:09;2.2403755;;2.1127365;;;;;;;
44530;SPS30;30240;47.418;0.700;2023-11-21T02:07:34;2.2631702;;2.141895;;;;;;;
44530;SPS30;30240;47.418;0.700;2023-11-21T02:09:58;2.3436353;;2.2085357;;;;;;;
44530;SPS30;30240;47.418;0.700;2023-11-21T02:12:24;2.1412044;;2.0352793;;;;;;;
44530;SPS30;30240;47.418;0.700;2023-11-21T02:14:48;2.0084345;;1.9065989;;;;;;;
44530;SPS30;30240;47.418;0.700;2023-11-21T02:17:13;2.0084345;;1.9065989;;;;;;;
44530;SPS30;30240;47.418;0.700;2023-11-21T02:19:38;1.9194037;;1.8082308;;;;;;;
44530;SPS30;30240;47.418;0.700;2023-11-21T02:22:03;1.8114058;;1.7285473;;;;;;;
44530;SPS30;30240;47.418;0.700;2023-11-21T02:24:28;1.6933173;;1.6092488;;;;;;;
44530;SPS30;30240;47.418;0.700;2023-11-21T02:26:54;1.8864156;;1.7700499;;;;;;;
44530;SPS30;30240;47.418;0.700;2023-11-21T02:29:19;1.8864156;;1.7700499;;;;;;;
44530;SPS30;30240;47.418;0.700;2023-11-21T02:31:44;2.0363827;;1.9170489;;;;;;;
44530;SPS30;30240;47.418;0.700;2023-11-21T02:34:08;2.157522;;2.0338554;;;;;;;
44530;SPS30;30240;47.418;0.700;2023-11-21T02:36:33;1.5292833;;1.4431639;;;;;;;
44530;SPS30;30240;47.418;0.700;2023-11-21T02:38:58;2.0196247;;1.9197023;;;;;;;
44530;SPS30;30240;47.418;0.700;2023-11-21T02:41:23;2.0196247;;1.9197023;;;;;;;
44530;SPS30;30240;47.418;0.700;2023-11-21T02:43:49;1.5862573;;1.4893771;;;;;;;
44530;SPS30;30240;47.418;0.700;2023-11-21T02:46:13;2.1843822;;2.0777442;;;;;;;
44530;SPS30;30240;47.418;0.700;2023-11-21T02:48:38;2.4673588;;2.3618655;;;;;;;
44530;SPS30;30240;47.418;0.700;2023-11-21T02:51:04;2.1690843;;2.0714722;;;;;;;
44530;SPS30;30240;47.418;0.700;2023-11-21T02:53:28;2.1690843;;2.0714722;;;;;;;
44530;SPS30;30240;47.418;0.700;2023-11-21T02:55:53;1.8884753;;1.816376;;;;;;;
44530;SPS30;30240;47.418;0.700;2023-11-21T02:58:18;2.1489615;;2.08043;;;;;;;
44530;SPS30;30240;47.418;0.700;2023-11-21T03:00:43;2.2785451;;2.1971967;;;;;;;
44530;SPS30;30240;47.418;0.700;2023-11-21T03:03:08;2.7981458;;2.714032;;;;;;;
44530;SPS30;30240;47.418;0.700;2023-11-21T03:05:33;2.7981458;;2.714032;;;;;;;
44530;SPS30;30240;47.418;0.700;2023-11-21T03:07:58;2.5056052;;2.4327018;;;;;;;
44530;SPS30;30240;47.418;0.700;2023-11-21T03:10:24;2.569442;;2.4936757;;;;;;;
44530;SPS30;30240;47.418;0.700;2023-11-21T03:12:49;2.494686;;2.4193318;;;;;;;
44530;SPS30;30240;47.418;0.700;2023-11-21T03:15:13;2.1298609;;2.1062539;;;;;;;
44530;SPS30;30240;47.418;0.700;2023-11-21T03:17:39;2.1298609;;2.1062539;;;;;;;
44530;SPS30;30240;47.418;0.700;2023-11-21T03:20:04;3.0019503;;2.9807239;;;;;;;
44530;SPS30;30240;47.418;0.700;2023-11-21T03:22:29;2.3118007;;2.2881935;;;;;;;
44530;SPS30;30240;47.418;0.700;2023-11-21T03:24:54;2.2076185;;2.1891828;;;;;;;
44530;SPS30;30240;47.418;0.700;2023-11-21T03:27:18;2.6898222;;2.662826;;;;;;;
44530;SPS30;30240;47.418;0.700;2023-11-21T03:29:43;2.6898222;;2.662826;;;;;;;
44530;SPS30;30240;47.418;0.700;2023-11-21T03:32:09;2.571276;;2.5455015;;;;;;;
44530;SPS30;30240;47.418;0.700;2023-11-21T03:34:34;2.329958;;2.329958;;;;;;;
44530;SPS30;30240;47.418;0.700;2023-11-21T03:36:58;2.2485132;;2.2480264;;;;;;;
44530;SPS30;30240;47.418;0.700;2023-11-21T03:39:23;2.9606566;;2.9606566;;;;;;;
44530;SPS30;30240;47.418;0.700;2023-11-21T03:41:48;2.0563507;;2.0563507;;;;;;;
44530;SPS30;30240;47.418;0.700;2023-11-21T03:44:14;2.0563507;;2.0563507;;;;;;;
44530;SPS30;30240;47.418;0.700;2023-11-21T03:46:38;3.11796;;3.0945613;;;;;;;
44530;SPS30;30240;47.418;0.700;2023-11-21T03:49:04;2.7024162;;2.6705835;;;;;;;
44530;SPS30;30240;47.418;0.700;2023-11-21T03:51:28;2.629499;;2.5935166;;;;;;;
44530;SPS30;30240;47.418;0.700;2023-11-21T03:53:53;2.8787076;;2.845682;;;;;;;
44530;SPS30;30240;47.418;0.700;2023-11-21T03:56:18;2.8787076;;2.845682;;;;;;;
44530;SPS30;30240;47.418;0.700;2023-11-21T03:58:43;2.523733;;2.523733;;;;;;;
44530;SPS30;30240;47.418;0.700;2023-11-21T04:01:08;2.791186;;2.791186;;;;;;;
44530;SPS30;30240;47.418;0.700;2023-11-21T04:03:33;3.193657;;3.193657;;;;;;;
44530;SPS30;30240;47.418;0.700;2023-11-21T04:05:58;2.6090019;;2.6023571;;;;;;;
44530;SPS30;30240;47.418;0.700;2023-11-21T04:08:24;2.6090019;;2.6023571;;;;;;;
44530;SPS30;30240;47.418;0.700;2023-11-21T04:10:48;4.142342;;4.1354856;;;;;;;
44530;SPS30;30240;47.418;0.700;2023-11-21T04:13:14;3.2532892;;3.25309;;;;;;;
44530;SPS30;30240;47.418;0.700;2023-11-21T04:15:39;3.3556798;;3.3556798;;;;;;;
44530;SPS30;30240;47.418;0.700;2023-11-21T04:18:04;3.0344021;;3.0344021;;;;;;;
44530;SPS30;30240;47.418;0.700;2023-11-21T04:20:29;3.0344021;;3.0344021;;;;;;;
44530;SPS30;30240;47.418;0.700;2023-11-21T04:22:53;3.0273154;;3.026939;;;;;;;
44530;SPS30;30240;47.418;0.700;2023-11-21T04:25:18;2.7942607;;2.783027;;;;;;;
44530;SPS30;30240;47.418;0.700;2023-11-21T04:27:45;2.1274219;;2.1219108;;;;;;;
44530;SPS30;30240;47.418;0.700;2023-11-21T04:30:09;2.3569016;;2.3475766;;;;;;;
44530;SPS30;30240;47.418;0.700;2023-11-21T04:32:34;2.3569016;;2.3475766;;;;;;;
44530;SPS30;30240;47.418;0.700;2023-11-21T04:34:59;2.2714558;;2.2682683;;;;;;;
44530;SPS30;30240;47.418;0.700;2023-11-21T04:37:24;2.1074615;;2.092844;;;;;;;
44530;SPS30;30240;47.418;0.700;2023-11-21T04:39:49;1.7926707;;1.77036;;;;;;;
44530;SPS30;30240;47.418;0.700;2023-11-21T04:42:14;2.2221534;;2.2033324;;;;;;;
44530;SPS30;30240;47.418;0.700;2023-11-21T04:44:39;2.2221534;;2.2033324;;;;;;;
44530;SPS30;30240;47.418;0.700;2023-11-21T04:47:04;2.0145044;;1.998915;;;;;;;
44530;SPS30;30240;47.418;0.700;2023-11-21T04:49:28;1.8872925;;1.8872925;;;;;;;
44530;SPS30;30240;47.418;0.700;2023-11-21T04:51:53;1.9552337;;1.9470513;;;;;;;
44530;SPS30;30240;47.418;0.700;2023-11-21T04:54:19;1.8265555;;1.8160782;;;;;;;
44530;SPS30;30240;47.418;0.700;2023-11-21T04:56:44;1.8265555;;1.8160782;;;;;;;
44530;SPS30;30240;47.418;0.700;2023-11-21T04:59:08;2.1889143;;2.188355;;;;;;;
44530;SPS30;30240;47.418;0.700;2023-11-21T05:01:33;2.035553;;2.0256314;;;;;;;
44530;SPS30;30240;47.418;0.700;2023-11-21T05:03:58;2.2841456;;2.2817843;;;;;;;
44530;SPS30;30240;47.418;0.700;2023-11-21T05:06:23;2.0817368;;2.0817368;;;;;;;
44530;SPS30;30240;47.418;0.700;2023-11-21T05:08:48;2.157618;;2.157618;;;;;;;
44530;SPS30;30240;47.418;0.700;2023-11-21T05:11:26;2.157618;;2.157618;;;;;;;
44530;SPS30;30240;47.418;0.700;2023-11-21T05:13:39;2.3572395;;2.3572395;;;;;;;
44530;SPS30;30240;47.418;0.700;2023-11-21T05:16:03;2.2535753;;2.2535753;;;;;;;
44530;SPS30;30240;47.418;0.700;2023-11-21T05:18:28;2.2614965;;2.2614965;;;;;;;
44530;SPS30;30240;47.418;0.700;2023-11-21T05:20:53;2.0752544;;2.0752544;;;;;;;
44530;SPS30;30240;47.418;0.700;2023-11-21T05:23:18;2.0752544;;2.0752544;;;;;;;
44530;SPS30;30240;47.418;0.700;2023-11-21T05:25:43;1.9472748;;1.9472702;;;;;;;
44530;SPS30;30240;47.418;0.700;2023-11-21T05:28:08;2.5836127;;2.5612357;;;;;;;
44530;SPS30;30240;47.418;0.700;2023-11-21T05:30:33;2.6057277;;2.5956054;;;;;;;
44530;SPS30;30240;47.418;0.700;2023-11-21T05:32:58;2.9187207;;2.8992107;;;;;;;
44530;SPS30;30240;47.418;0.700;2023-11-21T05:35:24;2.9187207;;2.8992107;;;;;;;
44530;SPS30;30240;47.418;0.700;2023-11-21T05:37:48;2.5828824;;2.5743523;;;;;;;
44530;SPS30;30240;47.418;0.700;2023-11-21T05:40:14;2.4228508;;2.4228508;;;;;;;
44530;SPS30;30240;47.418;0.700;2023-11-21T05:42:39;2.91626;;2.91626;;;;;;;
44530;SPS30;30240;47.418;0.700;2023-11-21T05:45:04;2.0480206;;2.0480206;;;;;;;
44530;SPS30;30240;47.418;0.700;2023-11-21T05:47:28;2.0480206;;2.0480206;;;;;;;
44530;SPS30;30240;47.418;0.700;2023-11-21T05:49:53;2.4040668;;2.4040668;;;;;;;
44530;SPS30;30240;47.418;0.700;2023-11-21T05:52:18;2.492406;;2.492406;;;;;;;
44530;SPS30;30240;47.418;0.700;2023-11-21T05:54:43;2.7115588;;2.7115588;;;;;;;
44530;SPS30;30240;47.418;0.700;2023-11-21T05:57:08;2.1128125;;2.1128125;;;;;;;
44530;SPS30;30240;47.418;0.700;2023-11-21T05:59:33;2.1128125;;2.1128125;;;;;;;
44530;SPS30;30240;47.418;0.700;2023-11-21T06:01:58;1.8992864;;1.8992864;;;;;;;
44530;SPS30;30240;47.418;0.700;2023-11-21T06:04:24;2.1201992;;2.1201992;;;;;;;
44530;SPS30;30240;47.418;0.700;2023-11-21T06:06:48;2.4787567;;2.4615285;;;;;;;
44530;SPS30;30240;47.418;0.700;2023-11-21T06:09:14;2.2875476;;2.2875476;;;;;;;
44530;SPS30;30240;47.418;0.700;2023-11-21T06:11:38;2.2875476;;2.2875476;;;;;;;
44530;SPS30;30240;47.418;0.700;2023-11-21T06:14:04;2.4167929;;2.4167929;;;;;;;
44530;SPS30;30240;47.418;0.700;2023-11-21T06:16:28;2.699127;;2.699127;;;;;;;
44530;SPS30;30240;47.418;0.700;2023-11-21T06:18:53;2.572132;;2.572132;;;;;;;
44530;SPS30;30240;47.418;0.700;2023-11-21T06:21:18;2.10719;;2.10719;;;;;;;
44530;SPS30;30240;47.418;0.700;2023-11-21T06:23:43;2.10719;;2.10719;;;;;;;
44530;SPS30;30240;47.418;0.700;2023-11-21T06:26:08;2.7730513;;2.7691865;;;;;;;
44530;SPS30;30240;47.418;0.700;2023-11-21T06:28:33;2.4445984;;2.4363308;;;;;;;
44530;SPS30;30240;47.418;0.700;2023-11-21T06:30:58;2.5393965;;2.5378618;;;;;;;
44530;SPS30;30240;47.418;0.700;2023-11-21T06:33:24;2.4763937;;2.4763937;;;;;;;
44530;SPS30;30240;47.418;0.700;2023-11-21T06:35:48;2.4763937;;2.4763937;;;;;;;
44530;SPS30;30240;47.418;0.700;2023-11-21T06:38:13;2.707126;;2.707126;;;;;;;
44530;SPS30;30240;47.418;0.700;2023-11-21T06:40:38;2.5766048;;2.5766048;;;;;;;
44530;SPS30;30240;47.418;0.700;2023-11-21T06:43:03;2.2221177;;2.2221177;;;;;;;
44530;SPS30;30240;47.418;0.700;2023-11-21T06:45:28;2.3809493;;2.3809493;;;;;;;
44530;SPS30;30240;47.418;0.700;2023-11-21T06:47:54;2.6927633;;2.6927626;;;;;;;
44530;SPS30;30240;47.418;0.700;2023-11-21T06:50:19;2.6927633;;2.6927626;;;;;;;
44530;SPS30;30240;47.418;0.700;2023-11-21T06:52:43;2.6103535;;2.6103535;;;;;;;
44530;SPS30;30240;47.418;0.700;2023-11-21T06:55:09;2.8372812;;2.820675;;;;;;;
44530;SPS30;30240;47.418;0.700;2023-11-21T06:57:33;1.9878927;;1.96931;;;;;;;
44530;SPS30;30240;47.418;0.700;2023-11-21T06:59:59;1.6616813;;1.6439166;;;;;;;
44530;SPS30;30240;47.418;0.700;2023-11-21T07:02:24;1.6616813;;1.6439166;;;;;;;
44530;SPS30;30240;47.418;0.700;2023-11-21T07:04:48;2.0038078;;1.9821713;;;;;;;
44530;SPS30;30240;47.418;0.700;2023-11-21T07:07:14;2.262834;;2.2517774;;;;;;;
44530;SPS30;30240;47.418;0.700;2023-11-21T07:09:39;2.2287018;;2.2175941;;;;;;;
44530;SPS30;30240;47.418;0.700;2023-11-21T07:12:05;2.8420737;;2.8214056;;;;;;;
44530;SPS30;30240;47.418;0.700;2023-11-21T07:14:29;2.8420737;;2.8214056;;;;;;;
44530;SPS30;30240;47.418;0.700;2023-11-21T07:16:53;2.576854;;2.5590124;;;;;;;
44530;SPS30;30240;47.418;0.700;2023-11-21T07:19:19;2.8395092;;2.8351517;;;;;;;
44530;SPS30;30240;47.418;0.700;2023-11-21T07:21:43;3.2759678;;3.2587059;;;;;;;
44530;SPS30;30240;47.418;0.700;2023-11-21T07:24:08;2.9916706;;2.9836788;;;;;;;
44530;SPS30;30240;47.418;0.700;2023-11-21T07:26:34;2.9916706;;2.9836788;;;;;;;
44530;SPS30;30240;47.418;0.700;2023-11-21T07:28:59;2.6888556;;2.6888556;;;;;;;
44530;SPS30;30240;47.418;0.700;2023-11-21T07:31:24;2.96252;;2.9599476;;;;;;;
44530;SPS30;30240;47.418;0.700;2023-11-21T07:33:48;2.8795295;;2.8732061;;;;;;;
44530;SPS30;30240;47.418;0.700;2023-11-21T07:36:14;3.822712;;3.8114297;;;;;;;
44530;SPS30;30240;47.418;0.700;2023-11-21T07:38:39;3.822712;;3.8114297;;;;;;;
44530;SPS30;30240;47.418;0.700;2023-11-21T07:41:04;3.0310214;;3.0149539;;;;;;;
44530;SPS30;30240;47.418;0.700;2023-11-21T07:43:28;3.0003035;;2.9916177;;;;;;;
44530;SPS30;30240;47.418;0.700;2023-11-21T07:45:54;2.9054387;;2.8983407;;;;;;;
44530;SPS30;30240;47.418;0.700;2023-11-21T07:48:18;3.3002472;;3.2991006;;;;;;;
44530;SPS30;30240;47.418;0.700;2023-11-21T07:50:43;3.3002472;;3.2991006;;;;;;;
44530;SPS30;30240;47.418;0.700;2023-11-21T07:53:08;3.3426886;;3.3426886;;;;;;;
44530;SPS30;30240;47.418;0.700;2023-11-21T07:55:34;2.9043143;;2.9040587;;;;;;;
44530;SPS30;30240;47.418;0.700;2023-11-21T07:57:59;2.9132602;;2.9132602;;;;;;;
44530;SPS30;30240;47.418;0.700;2023-11-21T08:00:23;2.7434392;;2.7434392;;;;;;;
44530;SPS30;30240;47.418;0.700;2023-11-21T08:02:48;2.7434392;;2.7434392;;;;;;;
44530;SPS30;30240;47.418;0.700;2023-11-21T08:05:13;2.5379283;;2.5379283;;;;;;;
44530;SPS30;30240;47.418;0.700;2023-11-21T08:07:38;2.5683436;;2.5683436;;;;;;;
44530;SPS30;30240;47.418;0.700;2023-11-21T08:10:04;2.6879919;;2.6879919;;;;;;;
44530;SPS30;30240;47.418;0.700;2023-11-21T08:12:28;2.4856908;;2.4856908;;;;;;;
44530;SPS30;30240;47.418;0.700;2023-11-21T08:14:53;2.3904688;;2.3904688;;;;;;;
44530;SPS30;30240;47.418;0.700;2023-11-21T08:17:18;2.3904688;;2.3904688;;;;;;;
44530;SPS30;30240;47.418;0.700;2023-11-21T08:19:43;2.6102183;;2.6102183;;;;;;;
44530;SPS30;30240;47.418;0.700;2023-11-21T08:22:08;2.818527;;2.818527;;;;;;;
44530;SPS30;30240;47.418;0.700;2023-11-21T08:24:33;2.8279176;;2.8279176;;;;;;;
44530;SPS30;30240;47.418;0.700;2023-11-21T08:26:59;2.8476825;;2.8445334;;;;;;;
44530;SPS30;30240;47.418;0.700;2023-11-21T08:29:23;2.8476825;;2.8445334;;;;;;;
44530;SPS30;30240;47.418;0.700;2023-11-21T08:31:48;3.2154348;;3.215429;;;;;;;
44530;SPS30;30240;47.418;0.700;2023-11-21T08:34:13;3.0820427;;3.0741136;;;;;;;
44530;SPS30;30240;47.418;0.700;2023-11-21T08:36:40;3.5592601;;3.550957;;;;;;;
44530;SPS30;30240;47.418;0.700;2023-11-21T08:39:03;3.0874712;;3.0619335;;;;;;;
44530;SPS30;30240;47.418;0.700;2023-11-21T08:41:28;3.0874712;;3.0619335;;;;;;;
44530;SPS30;30240;47.418;0.700;2023-11-21T08:43:53;3.1480944;;3.143962;;;;;;;
44530;SPS30;30240;47.418;0.700;2023-11-21T08:46:19;3.1240675;;3.1109042;;;;;;;
44530;SPS30;30240;47.418;0.700;2023-11-21T08:48:43;2.6201394;;2.6068516;;;;;;;
44530;SPS30;30240;47.418;0.700;2023-11-21T08:51:09;2.6449778;;2.623266;;;;;;;
44530;SPS30;30240;47.418;0.700;2023-11-21T08:53:34;2.6449778;;2.623266;;;;;;;
44530;SPS30;30240;47.418;0.700;2023-11-21T08:55:59;2.4222283;;2.398436;;;;;;;
44530;SPS30;30240;47.418;0.700;2023-11-21T08:58:23;2.3552446;;2.3449862;;;;;;;
44530;SPS30;30240;47.418;0.700;2023-11-21T09:00:48;2.3277426;;2.3277118;;;;;;;
44530;SPS30;30240;47.418;0.700;2023-11-21T09:03:14;2.5361729;;2.5338054;;;;;;;
44530;SPS30;30240;47.418;0.700;2023-11-21T09:05:39;2.5361729;;2.5338054;;;;;;;
44530;SPS30;30240;47.418;0.700;2023-11-21T09:08:03;2.4612586;;2.4612586;;;;;;;
44530;SPS30;30240;47.418;0.700;2023-11-21T09:10:28;2.6267192;;2.6267192;;;;;;;
44530;SPS30;30240;47.418;0.700;2023-11-21T09:12:53;1.7384678;;1.7384678;;;;;;;
44530;SPS30;30240;47.418;0.700;2023-11-21T09:15:18;2.1077065;;2.1077065;;;;;;;
44530;SPS30;30240;47.418;0.700;2023-11-21T09:17:43;2.1077065;;2.1077065;;;;;;;
44530;SPS30;30240;47.418;0.700;2023-11-21T09:20:09;2.2177572;;2.2177572;;;;;;;
44530;SPS30;30240;47.418;0.700;2023-11-21T09:22:33;1.9176608;;1.9176608;;;;;;;
44530;SPS30;30240;47.418;0.700;2023-11-21T09:24:58;1.8126436;;1.8126436;;;;;;;
44530;SPS30;30240;47.418;0.700;2023-11-21T09:27:23;1.8764101;;1.8764101;;;;;;;
44530;SPS30;30240;47.418;0.700;2023-11-21T09:29:48;1.8764101;;1.8764101;;;;;;;
44530;SPS30;30240;47.418;0.700;2023-11-21T09:32:14;2.303957;;2.2450924;;;;;;;
44530;SPS30;30240;47.418;0.700;2023-11-21T09:34:38;1.8920126;;1.8361944;;;;;;;
44530;SPS30;30240;47.418;0.700;2023-11-21T09:37:03;1.6810697;;1.6296746;;;;;;;
44530;SPS30;30240;47.418;0.700;2023-11-21T09:39:28;1.7995942;;1.7474382;;;;;;;
44530;SPS30;30240;47.418;0.700;2023-11-21T09:41:56;2.41755;;2.41755;;;;;;;
44530;SPS30;30240;47.418;0.700;2023-11-21T09:44:19;2.41755;;2.41755;;;;;;;
44530;SPS30;30240;47.418;0.700;2023-11-21T09:46:43;1.7868477;;1.7818022;;;;;;;
44530;SPS30;30240;47.418;0.700;2023-11-21T09:49:09;2.1539853;;2.1167915;;;;;;;
44530;SPS30;30240;47.418;0.700;2023-11-21T09:51:33;2.2321534;;2.2280152;;;;;;;
44530;SPS30;30240;47.418;0.700;2023-11-21T09:53:58;2.3658514;;2.3658514;;;;;;;
44530;SPS30;30240;47.418;0.700;2023-11-21T09:56:23;2.3658514;;2.3658514;;;;;;;
44530;SPS30;30240;47.418;0.700;2023-11-21T09:58:50;1.8493819;;1.8493819;;;;;;;
44530;SPS30;30240;47.418;0.700;2023-11-21T10:01:13;1.5424829;;1.5392119;;;;;;;
44530;SPS30;30240;47.418;0.700;2023-11-21T10:03:38;1.9338899;;1.9338894;;;;;;;
44530;SPS30;30240;47.418;0.700;2023-11-21T10:06:04;2.6950219;;2.6950219;;;;;;;
44530;SPS30;30240;47.418;0.700;2023-11-21T10:08:28;2.6950219;;2.6950219;;;;;;;
44530;SPS30;30240;47.418;0.700;2023-11-21T10:10:54;2.3002982;;2.3002982;;;;;;;
44530;SPS30;30240;47.418;0.700;2023-11-21T10:13:18;2.4376466;;2.4376466;;;;;;;
44530;SPS30;30240;47.418;0.700;2023-11-21T10:15:44;1.930822;;1.9085531;;;;;;;
44530;SPS30;30240;47.418;0.700;2023-11-21T10:18:08;1.8091692;;1.775215;;;;;;;
44530;SPS30;30240;47.418;0.700;2023-11-21T10:20:33;1.8091692;;1.775215;;;;;;;
44530;SPS30;30240;47.418;0.700;2023-11-21T10:22:59;1.7178118;;1.715918;;;;;;;
44530;SPS30;30240;47.418;0.700;2023-11-21T10:25:23;1.3402635;;1.3402635;;;;;;;
44530;SPS30;30240;47.418;0.700;2023-11-21T10:27:48;1.5177593;;1.5175222;;;;;;;
44530;SPS30;30240;47.418;0.700;2023-11-21T10:30:14;1.6036346;;1.6036346;;;;;;;
44530;SPS30;30240;47.418;0.700;2023-11-21T10:32:38;1.6036346;;1.6036346;;;;;;;
44530;SPS30;30240;47.418;0.700;2023-11-21T10:35:04;1.3012105;;1.3012105;;;;;;;
44530;SPS30;30240;47.418;0.700;2023-11-21T10:37:28;1.6795461;;1.6795461;;;;;;;
44530;SPS30;30240;47.418;0.700;2023-11-21T10:39:56;1.527355;;1.527355;;;;;;;
44530;SPS30;30240;47.418;0.700;2023-11-21T10:42:18;1.6936488;;1.6936488;;;;;;;
44530;SPS30;30240;47.418;0.700;2023-11-21T10:44:43;1.6936488;;1.6936488;;;;;;;
44530;SPS30;30240;47.418;0.700;2023-11-21T10:47:08;1.6323774;;1.6213552;;;;;;;
44530;SPS30;30240;47.418;0.700;2023-11-21T10:49:33;1.6511673;;1.6511673;;;;;;;
44530;SPS30;30240;47.418;0.700;2023-11-21T10:51:59;1.9237199;;1.9091141;;;;;;;
44530;SPS30;30240;47.418;0.700;2023-11-21T10:54:24;2.040766;;2.0196238;;;;;;;
44530;SPS30;30240;47.418;0.700;2023-11-21T10:56:49;2.040766;;2.0196238;;;;;;;
44530;SPS30;30240;47.418;0.700;2023-11-21T10:59:14;2.1998487;;2.1859329;;;;;;;
44530;SPS30;30240;47.418;0.700;2023-11-21T11:01:38;2.1000285;;2.0926592;;;;;;;
44530;SPS30;30240;47.418;0.700;2023-11-21T11:04:04;2.3159764;;2.3081114;;;;;;;
44530;SPS30;30240;47.418;0.700;2023-11-21T11:06:28;1.9628494;;1.9569205;;;;;;;
44530;SPS30;30240;47.418;0.700;2023-11-21T11:08:53;1.9628494;;1.9569205;;;;;;;
44530;SPS30;30240;47.418;0.700;2023-11-21T11:11:18;1.8199303;;1.8117496;;;;;;;
44530;SPS30;30240;47.418;0.700;2023-11-21T11:13:43;2.4390743;;2.4259882;;;;;;;
44530;SPS30;30240;47.418;0.700;2023-11-21T11:16:08;2.192696;;2.192696;;;;;;;
44530;SPS30;30240;47.418;0.700;2023-11-21T11:18:33;2.1204393;;2.1204393;;;;;;;
44530;SPS30;30240;47.418;0.700;2023-11-21T11:21:00;1.8290521;;1.8290521;;;;;;;
44530;SPS30;30240;47.418;0.700;2023-11-21T11:23:29;1.8290521;;1.8290521;;;;;;;
44530;SPS30;30240;47.418;0.700;2023-11-21T11:25:53;2.1355379;;2.132249;;;;;;;
44530;SPS30;30240;47.418;0.700;2023-11-21T11:28:14;2.387975;;2.3807755;;;;;;;
44530;SPS30;30240;47.418;0.700;2023-11-21T11:30:41;2.28692;;2.286911;;;;;;;
44530;SPS30;30240;47.418;0.700;2023-11-21T11:33:04;2.0522056;;2.0522056;;;;;;;
44530;SPS30;30240;47.418;0.700;2023-11-21T11:35:30;2.0522056;;2.0522056;;;;;;;
44530;SPS30;30240;47.418;0.700;2023-11-21T11:37:53;2.2661843;;2.2661843;;;;;;;
44530;SPS30;30240;47.418;0.700;2023-11-21T11:40:18;1.8961117;;1.8961117;;;;;;;
44530;SPS30;30240;47.418;0.700;2023-11-21T11:42:55;2.614826;;2.6148245;;;;;;;
44530;SPS30;30240;47.418;0.700;2023-11-21T11:45:17;2.2340798;;2.2340798;;;;;;;
44530;SPS30;30240;47.418;0.700;2023-11-21T11:47:34;2.2340798;;2.2340798;;;;;;;
44530;SPS30;30240;47.418;0.700;2023-11-21T11:50:00;1.9320031;;1.9320031;;;;;;;
44530;SPS30;30240;47.418;0.700;2023-11-21T11:52:31;2.5814064;;2.5814064;;;;;;;
44530;SPS30;30240;47.418;0.700;2023-11-21T11:54:49;2.2515821;;2.2515821;;;;;;;
44530;SPS30;30240;47.418;0.700;2023-11-21T11:57:14;2.3975246;;2.3975246;;;;;;;
44530;SPS30;30240;47.418;0.700;2023-11-21T12:00:08;2.3975246;;2.3975246;;;;;;;
44530;SPS30;30240;47.418;0.700;2023-11-21T12:02:04;2.6238227;;2.6238227;;;;;;;
44530;SPS30;30240;47.418;0.700;2023-11-21T12:04:29;2.3217237;;2.3217237;;;;;;;
44530;SPS30;30240;47.418;0.700;2023-11-21T12:06:54;2.2873259;;2.2873259;;;;;;;
44530;SPS30;30240;47.418;0.700;2023-11-21T12:09:19;2.5573223;;2.5573223;;;;;;;
44530;SPS30;30240;47.418;0.700;2023-11-21T12:11:44;2.5573223;;2.5573223;;;;;;;
44530;SPS30;30240;47.418;0.700;2023-11-21T12:14:09;2.384971;;2.3730752;;;;;;;